Disclaimer

Please do not use the information listed here in-flight or in-navigation, as they are not provided to us by the airports but are provided by volunteers, so they might be outdated.

Search


Regions


Airport information page

Radio informations:
Tower (TWR) - 118.6 MHz

Airport informations:
Latitude: 08° 37' 27.86" N
Longitude: 016° 04' 17.11" E
Elevation: 1407 feet - 429 meters
Operating hours: Remarks
Operating agency: Civil government, landing fees and diplomatic clearance may be required
Timezone: UTC+1
Fuel: N/A

Runway information:
04/22 - 5906 x 115 feet< - >1800 x 35 meters

Recent METARs:
FTTD 131200Z 00000KT CAVOK 36/22 Q1009
FTTD 131200Z 00000KT CAVOK 36/22 Q1009
FTTD 131500Z 00000KT CAVOK 36/22 Q1007

Airport on the map: